메인 페이지
METAR-TAF:

METAR-TAF

공항 :

그로즈니, 러시아

위도: 43-23-18N, 경도: 045-41-59E, 고도: 167m

현재 날씨관측

예보는 38분 전, 13:00시(UTC)에 발표되었습니다.
남남서10kt풍과 서남서풍을 오가는
온도 22°C
습도 65%
기압 1019 hPa
시정 10km 이상
고도 3600ft 상공 구름 보통
구름 많음

METAR: URMG 051300Z 21005MPS 190V250 9999 SCT036 BKN/// 22/15 Q1019 R26/090070 NOSIG RMK QFE750/1000

시각: 16:38 (13:38 UTC)

예보

예보는 2 시간 38분 전, 11:00시(UTC)에 발표되었습니다.
예보 대상 시간: 05일 12시부터 05일 21시까지 (UTC)
6kt, 순간 최대 풍속 16kt
시정 10km 이상
고도 2000ft 상공 구름 많음
일시적
05일 12시부터 05일 21시까지 (UTC)
여러 방향의 바람 2kt
시정: 6000m
고도 1600ft 상공 구름 많음
고도 2000ft 상공 구름 많음, 적란운.
약한소나기

TAF: URMG 051100Z 0512/0521 26003G08MPS 9999 BKN020 TEMPO 0512/0521 VRB01MPS 6000 -SHRA BKN016 BKN020CB

4,000개 이상의 공항 관측 자료 및 예보 (METAR 및 TAF 보고).

지도상에서 검색 가능한 기상관측소가 노란 점과 빨간 점으로 표시되어 있습니다.

기상관측소 명을 보려면 표시 위로 마우스를 이동하세요.

날씨 관측과 예보를 보려면 클릭하세요.

지도 변경 : 확대하려면 엑스 표시가 있는 녹색 버튼, 축소하려면 빼기 표시가 있는 녹색 버튼, 다음 페이지의 지도를 보려면 녹색 화살표를 클릭하세요.


METAR-TAF: